sensor_id;sensor_type;location;lat;lon;timestamp;temperature;humidity
35894;DHT22;21994;48.204;16.516;2023-01-23T00:00:28;1.40;99.90
35894;DHT22;21994;48.204;16.516;2023-01-23T00:02:55;1.40;99.90
35894;DHT22;21994;48.204;16.516;2023-01-23T00:05:21;1.40;99.90
35894;DHT22;21994;48.204;16.516;2023-01-23T00:07:47;1.40;99.90
35894;DHT22;21994;48.204;16.516;2023-01-23T00:10:12;1.50;99.90
35894;DHT22;21994;48.204;16.516;2023-01-23T00:12:44;1.50;99.90
35894;DHT22;21994;48.204;16.516;2023-01-23T00:15:11;1.40;99.90
35894;DHT22;21994;48.204;16.516;2023-01-23T00:17:37;1.50;99.90
35894;DHT22;21994;48.204;16.516;2023-01-23T00:20:05;1.40;99.90
35894;DHT22;21994;48.204;16.516;2023-01-23T00:22:34;1.50;99.90
35894;DHT22;21994;48.204;16.516;2023-01-23T00:25:00;1.40;99.90
35894;DHT22;21994;48.204;16.516;2023-01-23T00:27:26;1.50;99.90
35894;DHT22;21994;48.204;16.516;2023-01-23T00:29:52;1.40;99.90
35894;DHT22;21994;48.204;16.516;2023-01-23T00:32:18;1.40;99.90
35894;DHT22;21994;48.204;16.516;2023-01-23T00:34:44;1.50;99.90
35894;DHT22;21994;48.204;16.516;2023-01-23T00:37:11;1.50;99.90
35894;DHT22;21994;48.204;16.516;2023-01-23T00:39:37;1.40;99.90
35894;DHT22;21994;48.204;16.516;2023-01-23T00:42:03;1.50;99.90
35894;DHT22;21994;48.204;16.516;2023-01-23T00:44:28;1.50;99.90
35894;DHT22;21994;48.204;16.516;2023-01-23T00:46:55;1.50;99.90
35894;DHT22;21994;48.204;16.516;2023-01-23T00:49:21;1.50;99.90
35894;DHT22;21994;48.204;16.516;2023-01-23T00:51:47;1.50;99.90
35894;DHT22;21994;48.204;16.516;2023-01-23T00:54:15;1.50;99.90
35894;DHT22;21994;48.204;16.516;2023-01-23T00:56:41;1.50;99.90
35894;DHT22;21994;48.204;16.516;2023-01-23T00:59:07;1.50;99.90
35894;DHT22;21994;48.204;16.516;2023-01-23T01:01:34;1.50;99.90
35894;DHT22;21994;48.204;16.516;2023-01-23T01:03:59;1.60;99.90
35894;DHT22;21994;48.204;16.516;2023-01-23T01:06:26;1.50;99.90
35894;DHT22;21994;48.204;16.516;2023-01-23T01:08:54;1.50;99.90
35894;DHT22;21994;48.204;16.516;2023-01-23T01:11:21;1.50;99.90
35894;DHT22;21994;48.204;16.516;2023-01-23T01:13:47;1.50;99.90
35894;DHT22;21994;48.204;16.516;2023-01-23T01:16:13;1.50;99.90
35894;DHT22;21994;48.204;16.516;2023-01-23T01:18:39;1.50;99.90
35894;DHT22;21994;48.204;16.516;2023-01-23T01:21:09;1.50;99.90
35894;DHT22;21994;48.204;16.516;2023-01-23T01:23:36;1.40;99.90
35894;DHT22;21994;48.204;16.516;2023-01-23T01:26:04;1.40;99.90
35894;DHT22;21994;48.204;16.516;2023-01-23T01:28:30;1.50;99.90
35894;DHT22;21994;48.204;16.516;2023-01-23T01:30:57;1.50;99.90
35894;DHT22;21994;48.204;16.516;2023-01-23T01:33:28;1.50;99.90
35894;DHT22;21994;48.204;16.516;2023-01-23T01:35:54;1.40;99.90
35894;DHT22;21994;48.204;16.516;2023-01-23T01:38:23;1.50;99.90
35894;DHT22;21994;48.204;16.516;2023-01-23T01:40:48;1.50;99.90
35894;DHT22;21994;48.204;16.516;2023-01-23T01:43:17;1.60;99.90
35894;DHT22;21994;48.204;16.516;2023-01-23T01:48:35;1.50;99.90
35894;DHT22;21994;48.204;16.516;2023-01-23T01:51:27;1.50;99.90
35894;DHT22;21994;48.204;16.516;2023-01-23T01:56:34;1.60;99.90
35894;DHT22;21994;48.204;16.516;2023-01-23T01:59:04;1.50;99.90
35894;DHT22;21994;48.204;16.516;2023-01-23T02:01:30;1.50;99.90
35894;DHT22;21994;48.204;16.516;2023-01-23T02:03:56;1.60;99.90
35894;DHT22;21994;48.204;16.516;2023-01-23T02:06:22;1.60;99.90
35894;DHT22;21994;48.204;16.516;2023-01-23T02:08:55;1.60;99.90
35894;DHT22;21994;48.204;16.516;2023-01-23T02:11:30;1.60;99.90
35894;DHT22;21994;48.204;16.516;2023-01-23T02:13:56;1.60;99.90
35894;DHT22;21994;48.204;16.516;2023-01-23T02:16:25;1.60;99.90
35894;DHT22;21994;48.204;16.516;2023-01-23T02:18:56;1.50;99.90
35894;DHT22;21994;48.204;16.516;2023-01-23T02:21:23;1.60;99.90
35894;DHT22;21994;48.204;16.516;2023-01-23T02:26:36;1.60;99.90
35894;DHT22;21994;48.204;16.516;2023-01-23T02:29:03;1.50;99.90
35894;DHT22;21994;48.204;16.516;2023-01-23T02:31:30;1.60;99.90
35894;DHT22;21994;48.204;16.516;2023-01-23T02:33:56;1.50;99.90
35894;DHT22;21994;48.204;16.516;2023-01-23T02:36:24;1.60;99.90
35894;DHT22;21994;48.204;16.516;2023-01-23T02:41:33;1.40;99.90
35894;DHT22;21994;48.204;16.516;2023-01-23T02:46:54;1.60;99.90
35894;DHT22;21994;48.204;16.516;2023-01-23T02:49:21;1.70;99.90
35894;DHT22;21994;48.204;16.516;2023-01-23T02:51:47;1.70;99.90
35894;DHT22;21994;48.204;16.516;2023-01-23T02:54:14;1.80;99.90
35894;DHT22;21994;48.204;16.516;2023-01-23T02:56:40;1.80;99.90
35894;DHT22;21994;48.204;16.516;2023-01-23T02:59:08;1.80;99.90
35894;DHT22;21994;48.204;16.516;2023-01-23T03:01:53;1.80;99.90
35894;DHT22;21994;48.204;16.516;2023-01-23T03:04:19;1.80;99.90
35894;DHT22;21994;48.204;16.516;2023-01-23T03:06:45;1.80;99.90
35894;DHT22;21994;48.204;16.516;2023-01-23T03:09:11;1.80;99.90
35894;DHT22;21994;48.204;16.516;2023-01-23T03:11:39;1.80;99.90
35894;DHT22;21994;48.204;16.516;2023-01-23T03:14:07;1.80;99.90
35894;DHT22;21994;48.204;16.516;2023-01-23T03:16:34;1.70;99.90
35894;DHT22;21994;48.204;16.516;2023-01-23T03:19:04;1.80;99.90
35894;DHT22;21994;48.204;16.516;2023-01-23T03:21:32;1.90;99.90
35894;DHT22;21994;48.204;16.516;2023-01-23T03:24:01;1.80;99.90
35894;DHT22;21994;48.204;16.516;2023-01-23T03:26:28;1.80;99.90
35894;DHT22;21994;48.204;16.516;2023-01-23T03:28:54;1.70;99.90
35894;DHT22;21994;48.204;16.516;2023-01-23T03:31:38;1.80;99.90
35894;DHT22;21994;48.204;16.516;2023-01-23T03:34:03;1.80;99.90
35894;DHT22;21994;48.204;16.516;2023-01-23T03:36:29;1.70;99.90
35894;DHT22;21994;48.204;16.516;2023-01-23T03:38:55;1.70;99.90
35894;DHT22;21994;48.204;16.516;2023-01-23T03:41:39;1.60;99.90
35894;DHT22;21994;48.204;16.516;2023-01-23T03:44:07;1.60;99.90
35894;DHT22;21994;48.204;16.516;2023-01-23T03:46:33;1.60;99.90
35894;DHT22;21994;48.204;16.516;2023-01-23T03:48:59;1.60;99.90
35894;DHT22;21994;48.204;16.516;2023-01-23T03:51:25;1.60;99.90
35894;DHT22;21994;48.204;16.516;2023-01-23T03:53:51;1.60;99.90
35894;DHT22;21994;48.204;16.516;2023-01-23T03:56:16;1.60;99.90
35894;DHT22;21994;48.204;16.516;2023-01-23T03:58:42;1.60;99.90
35894;DHT22;21994;48.204;16.516;2023-01-23T04:01:08;1.60;99.90
35894;DHT22;21994;48.204;16.516;2023-01-23T04:03:34;1.60;99.90
35894;DHT22;21994;48.204;16.516;2023-01-23T04:06:00;1.60;99.90
35894;DHT22;21994;48.204;16.516;2023-01-23T04:08:26;1.60;99.90
35894;DHT22;21994;48.204;16.516;2023-01-23T04:10:59;1.70;99.90
35894;DHT22;21994;48.204;16.516;2023-01-23T04:13:32;1.60;99.90
35894;DHT22;21994;48.204;16.516;2023-01-23T04:15:59;1.70;99.90
35894;DHT22;21994;48.204;16.516;2023-01-23T04:18:28;1.60;99.90
35894;DHT22;21994;48.204;16.516;2023-01-23T04:20:54;1.60;99.90
35894;DHT22;21994;48.204;16.516;2023-01-23T04:23:21;1.50;99.90
35894;DHT22;21994;48.204;16.516;2023-01-23T04:25:47;1.60;99.90
35894;DHT22;21994;48.204;16.516;2023-01-23T04:28:13;1.70;99.90
35894;DHT22;21994;48.204;16.516;2023-01-23T04:30:39;1.70;99.90
35894;DHT22;21994;48.204;16.516;2023-01-23T04:33:04;1.60;99.90
35894;DHT22;21994;48.204;16.516;2023-01-23T04:35:30;1.70;99.90
35894;DHT22;21994;48.204;16.516;2023-01-23T04:37:56;1.60;99.90
35894;DHT22;21994;48.204;16.516;2023-01-23T04:40:22;1.70;99.90
35894;DHT22;21994;48.204;16.516;2023-01-23T04:42:47;1.70;99.90
35894;DHT22;21994;48.204;16.516;2023-01-23T04:45:13;1.60;99.90
35894;DHT22;21994;48.204;16.516;2023-01-23T04:47:39;1.60;99.90
35894;DHT22;21994;48.204;16.516;2023-01-23T04:50:05;1.60;99.90
35894;DHT22;21994;48.204;16.516;2023-01-23T04:52:31;1.60;99.90
35894;DHT22;21994;48.204;16.516;2023-01-23T04:54:57;1.60;99.90
35894;DHT22;21994;48.204;16.516;2023-01-23T04:57:22;1.60;99.90
35894;DHT22;21994;48.204;16.516;2023-01-23T04:59:48;1.50;99.90
35894;DHT22;21994;48.204;16.516;2023-01-23T05:02:14;1.80;99.90
35894;DHT22;21994;48.204;16.516;2023-01-23T05:04:40;1.70;99.90
35894;DHT22;21994;48.204;16.516;2023-01-23T05:07:06;1.70;99.90
35894;DHT22;21994;48.204;16.516;2023-01-23T05:09:33;1.70;99.90
35894;DHT22;21994;48.204;16.516;2023-01-23T05:11:59;1.60;99.90
35894;DHT22;21994;48.204;16.516;2023-01-23T05:14:25;1.60;99.90
35894;DHT22;21994;48.204;16.516;2023-01-23T05:16:51;1.60;99.90
35894;DHT22;21994;48.204;16.516;2023-01-23T05:19:16;1.60;99.90
35894;DHT22;21994;48.204;16.516;2023-01-23T05:21:42;1.60;99.90
35894;DHT22;21994;48.204;16.516;2023-01-23T05:24:08;1.50;99.90
35894;DHT22;21994;48.204;16.516;2023-01-23T05:26:34;1.50;99.90
35894;DHT22;21994;48.204;16.516;2023-01-23T05:29:01;1.60;99.90
35894;DHT22;21994;48.204;16.516;2023-01-23T05:31:27;1.50;99.90
35894;DHT22;21994;48.204;16.516;2023-01-23T05:33:53;1.50;99.90
35894;DHT22;21994;48.204;16.516;2023-01-23T05:36:19;1.50;99.90
35894;DHT22;21994;48.204;16.516;2023-01-23T05:38:44;1.60;99.90
35894;DHT22;21994;48.204;16.516;2023-01-23T05:41:10;1.50;99.90
35894;DHT22;21994;48.204;16.516;2023-01-23T05:43:36;1.50;99.90
35894;DHT22;21994;48.204;16.516;2023-01-23T05:46:02;1.50;99.90
35894;DHT22;21994;48.204;16.516;2023-01-23T05:48:28;1.60;99.90
35894;DHT22;21994;48.204;16.516;2023-01-23T05:50:54;1.50;99.90
35894;DHT22;21994;48.204;16.516;2023-01-23T05:53:20;1.50;99.90
35894;DHT22;21994;48.204;16.516;2023-01-23T05:55:46;1.50;99.90
35894;DHT22;21994;48.204;16.516;2023-01-23T05:58:11;1.50;99.90
35894;DHT22;21994;48.204;16.516;2023-01-23T06:00:37;1.60;99.90
35894;DHT22;21994;48.204;16.516;2023-01-23T06:03:03;1.60;99.90
35894;DHT22;21994;48.204;16.516;2023-01-23T06:05:30;1.60;99.90
35894;DHT22;21994;48.204;16.516;2023-01-23T06:07:56;1.50;99.90
35894;DHT22;21994;48.204;16.516;2023-01-23T06:10:22;1.60;99.90
35894;DHT22;21994;48.204;16.516;2023-01-23T06:12:48;1.60;99.90
35894;DHT22;21994;48.204;16.516;2023-01-23T06:15:14;1.60;99.90
35894;DHT22;21994;48.204;16.516;2023-01-23T06:17:39;1.60;99.90
35894;DHT22;21994;48.204;16.516;2023-01-23T06:20:05;1.70;99.90
35894;DHT22;21994;48.204;16.516;2023-01-23T06:22:32;1.70;99.90
35894;DHT22;21994;48.204;16.516;2023-01-23T06:24:57;1.70;99.90
35894;DHT22;21994;48.204;16.516;2023-01-23T06:27:23;1.60;99.90
35894;DHT22;21994;48.204;16.516;2023-01-23T06:29:51;1.70;99.90
35894;DHT22;21994;48.204;16.516;2023-01-23T06:32:17;1.70;99.90
35894;DHT22;21994;48.204;16.516;2023-01-23T06:34:43;1.70;99.90
35894;DHT22;21994;48.204;16.516;2023-01-23T06:37:09;1.70;99.90
35894;DHT22;21994;48.204;16.516;2023-01-23T06:39:34;1.70;99.90
35894;DHT22;21994;48.204;16.516;2023-01-23T06:42:00;1.70;99.90
35894;DHT22;21994;48.204;16.516;2023-01-23T06:44:26;1.70;99.90
35894;DHT22;21994;48.204;16.516;2023-01-23T06:46:52;1.70;99.90
35894;DHT22;21994;48.204;16.516;2023-01-23T06:49:18;1.70;99.90
35894;DHT22;21994;48.204;16.516;2023-01-23T06:51:43;1.70;99.90
35894;DHT22;21994;48.204;16.516;2023-01-23T06:54:09;1.70;99.90
35894;DHT22;21994;48.204;16.516;2023-01-23T06:56:35;1.70;99.90
35894;DHT22;21994;48.204;16.516;2023-01-23T06:59:01;1.70;99.90
35894;DHT22;21994;48.204;16.516;2023-01-23T07:01:27;1.70;99.90
35894;DHT22;21994;48.204;16.516;2023-01-23T07:03:53;1.70;99.90
35894;DHT22;21994;48.204;16.516;2023-01-23T07:06:19;1.70;99.90
35894;DHT22;21994;48.204;16.516;2023-01-23T07:08:45;1.80;99.90
35894;DHT22;21994;48.204;16.516;2023-01-23T07:11:11;1.70;99.90
35894;DHT22;21994;48.204;16.516;2023-01-23T07:13:37;1.70;99.90
35894;DHT22;21994;48.204;16.516;2023-01-23T07:16:03;1.80;99.90
35894;DHT22;21994;48.204;16.516;2023-01-23T07:18:29;1.80;99.90
35894;DHT22;21994;48.204;16.516;2023-01-23T07:20:54;1.80;99.90
35894;DHT22;21994;48.204;16.516;2023-01-23T07:23:20;1.80;99.90
35894;DHT22;21994;48.204;16.516;2023-01-23T07:25:46;1.80;99.90
35894;DHT22;21994;48.204;16.516;2023-01-23T07:28:12;1.80;99.90
35894;DHT22;21994;48.204;16.516;2023-01-23T07:30:38;1.80;99.90
35894;DHT22;21994;48.204;16.516;2023-01-23T07:33:04;1.90;99.90
35894;DHT22;21994;48.204;16.516;2023-01-23T07:35:30;1.90;99.90
35894;DHT22;21994;48.204;16.516;2023-01-23T07:37:56;1.90;99.90
35894;DHT22;21994;48.204;16.516;2023-01-23T07:40:22;2.00;99.90
35894;DHT22;21994;48.204;16.516;2023-01-23T07:42:48;2.00;99.90
35894;DHT22;21994;48.204;16.516;2023-01-23T07:45:14;1.80;99.90
35894;DHT22;21994;48.204;16.516;2023-01-23T07:47:39;1.90;99.90
35894;DHT22;21994;48.204;16.516;2023-01-23T07:50:06;2.00;99.90
35894;DHT22;21994;48.204;16.516;2023-01-23T07:52:33;2.00;99.90
35894;DHT22;21994;48.204;16.516;2023-01-23T07:54:59;2.00;99.90
35894;DHT22;21994;48.204;16.516;2023-01-23T07:57:25;2.00;99.90
35894;DHT22;21994;48.204;16.516;2023-01-23T07:59:50;2.00;99.90
35894;DHT22;21994;48.204;16.516;2023-01-23T08:02:16;2.10;99.90
35894;DHT22;21994;48.204;16.516;2023-01-23T08:04:42;2.10;99.90
35894;DHT22;21994;48.204;16.516;2023-01-23T08:07:08;2.10;99.90
35894;DHT22;21994;48.204;16.516;2023-01-23T08:09:33;2.10;99.90
35894;DHT22;21994;48.204;16.516;2023-01-23T08:11:59;2.10;99.90
35894;DHT22;21994;48.204;16.516;2023-01-23T08:14:25;2.10;99.90
35894;DHT22;21994;48.204;16.516;2023-01-23T08:16:51;2.10;99.90
35894;DHT22;21994;48.204;16.516;2023-01-23T08:19:17;2.20;99.90
35894;DHT22;21994;48.204;16.516;2023-01-23T08:21:43;2.10;99.90
35894;DHT22;21994;48.204;16.516;2023-01-23T08:24:10;2.20;99.90
35894;DHT22;21994;48.204;16.516;2023-01-23T08:26:36;2.10;99.90
35894;DHT22;21994;48.204;16.516;2023-01-23T08:29:02;2.20;99.90
35894;DHT22;21994;48.204;16.516;2023-01-23T08:31:28;2.20;99.90
35894;DHT22;21994;48.204;16.516;2023-01-23T08:33:54;2.20;99.90
35894;DHT22;21994;48.204;16.516;2023-01-23T08:36:20;2.10;99.90
35894;DHT22;21994;48.204;16.516;2023-01-23T08:38:46;2.20;99.90
35894;DHT22;21994;48.204;16.516;2023-01-23T08:41:12;2.20;99.90
35894;DHT22;21994;48.204;16.516;2023-01-23T08:43:38;2.20;99.90
35894;DHT22;21994;48.204;16.516;2023-01-23T08:46:06;2.20;99.90
35894;DHT22;21994;48.204;16.516;2023-01-23T08:48:32;2.20;99.90
35894;DHT22;21994;48.204;16.516;2023-01-23T08:51:04;2.20;99.90
35894;DHT22;21994;48.204;16.516;2023-01-23T08:53:32;2.10;99.90
35894;DHT22;21994;48.204;16.516;2023-01-23T08:55:59;2.10;99.90
35894;DHT22;21994;48.204;16.516;2023-01-23T08:58:25;2.10;99.90
35894;DHT22;21994;48.204;16.516;2023-01-23T09:00:51;2.10;99.90
35894;DHT22;21994;48.204;16.516;2023-01-23T09:03:17;2.00;99.90
35894;DHT22;21994;48.204;16.516;2023-01-23T09:05:43;2.00;99.90
35894;DHT22;21994;48.204;16.516;2023-01-23T09:08:09;2.10;99.90
35894;DHT22;21994;48.204;16.516;2023-01-23T09:10:35;2.10;99.90
35894;DHT22;21994;48.204;16.516;2023-01-23T09:13:01;2.10;99.90
35894;DHT22;21994;48.204;16.516;2023-01-23T09:15:26;2.20;99.90
35894;DHT22;21994;48.204;16.516;2023-01-23T09:17:52;2.20;99.90
35894;DHT22;21994;48.204;16.516;2023-01-23T09:20:18;2.20;99.90
35894;DHT22;21994;48.204;16.516;2023-01-23T09:22:44;2.20;99.90
35894;DHT22;21994;48.204;16.516;2023-01-23T09:25:10;2.20;99.90
35894;DHT22;21994;48.204;16.516;2023-01-23T09:27:36;2.20;99.90
35894;DHT22;21994;48.204;16.516;2023-01-23T09:30:02;2.20;99.90
35894;DHT22;21994;48.204;16.516;2023-01-23T09:32:28;2.20;99.90
35894;DHT22;21994;48.204;16.516;2023-01-23T09:34:55;2.20;99.90
35894;DHT22;21994;48.204;16.516;2023-01-23T09:37:21;2.30;99.90
35894;DHT22;21994;48.204;16.516;2023-01-23T09:39:47;2.30;99.90
35894;DHT22;21994;48.204;16.516;2023-01-23T09:42:16;2.40;99.90
35894;DHT22;21994;48.204;16.516;2023-01-23T09:44:45;2.30;99.90
35894;DHT22;21994;48.204;16.516;2023-01-23T09:47:17;2.30;99.90
35894;DHT22;21994;48.204;16.516;2023-01-23T09:52:26;2.40;99.90
35894;DHT22;21994;48.204;16.516;2023-01-23T09:54:57;2.50;99.90
35894;DHT22;21994;48.204;16.516;2023-01-23T09:57:31;2.50;99.90
35894;DHT22;21994;48.204;16.516;2023-01-23T10:00:04;2.50;99.90
35894;DHT22;21994;48.204;16.516;2023-01-23T10:02:57;2.50;99.90
35894;DHT22;21994;48.204;16.516;2023-01-23T10:08:32;2.40;99.90
35894;DHT22;21994;48.204;16.516;2023-01-23T10:11:16;2.40;99.90
35894;DHT22;21994;48.204;16.516;2023-01-23T10:23:18;2.50;99.90
35894;DHT22;21994;48.204;16.516;2023-01-23T10:25:49;2.60;99.90
35894;DHT22;21994;48.204;16.516;2023-01-23T10:28:16;2.50;99.90
35894;DHT22;21994;48.204;16.516;2023-01-23T10:31:06;2.50;99.90
35894;DHT22;21994;48.204;16.516;2023-01-23T10:33:36;2.50;99.90
35894;DHT22;21994;48.204;16.516;2023-01-23T10:36:12;2.60;99.90
35894;DHT22;21994;48.204;16.516;2023-01-23T10:41:23;2.60;99.90
35894;DHT22;21994;48.204;16.516;2023-01-23T10:43:50;2.70;99.90
35894;DHT22;21994;48.204;16.516;2023-01-23T10:46:21;2.70;99.90
35894;DHT22;21994;48.204;16.516;2023-01-23T10:48:52;2.80;99.90
35894;DHT22;21994;48.204;16.516;2023-01-23T10:51:26;2.80;99.90
35894;DHT22;21994;48.204;16.516;2023-01-23T10:53:59;2.80;99.90
35894;DHT22;21994;48.204;16.516;2023-01-23T10:56:25;2.80;99.90
35894;DHT22;21994;48.204;16.516;2023-01-23T10:58:53;2.80;99.90
35894;DHT22;21994;48.204;16.516;2023-01-23T11:01:29;2.90;99.90
35894;DHT22;21994;48.204;16.516;2023-01-23T11:03:56;2.80;99.90
35894;DHT22;21994;48.204;16.516;2023-01-23T11:06:24;2.90;99.90
35894;DHT22;21994;48.204;16.516;2023-01-23T11:08:59;2.90;99.90
35894;DHT22;21994;48.204;16.516;2023-01-23T11:11:26;2.90;99.90
35894;DHT22;21994;48.204;16.516;2023-01-23T11:16:30;2.90;99.90
35894;DHT22;21994;48.204;16.516;2023-01-23T11:19:02;2.80;99.90
35894;DHT22;21994;48.204;16.516;2023-01-23T11:21:34;2.80;99.90
35894;DHT22;21994;48.204;16.516;2023-01-23T11:26:56;2.90;99.90
35894;DHT22;21994;48.204;16.516;2023-01-23T11:29:27;2.90;99.90
35894;DHT22;21994;48.204;16.516;2023-01-23T11:31:59;2.90;99.90
35894;DHT22;21994;48.204;16.516;2023-01-23T11:34:40;3.00;99.90
35894;DHT22;21994;48.204;16.516;2023-01-23T11:37:31;3.00;99.90
35894;DHT22;21994;48.204;16.516;2023-01-23T11:42:40;3.10;99.90
35894;DHT22;21994;48.204;16.516;2023-01-23T11:45:29;3.20;99.90
35894;DHT22;21994;48.204;16.516;2023-01-23T12:10:15;3.20;99.90
35894;DHT22;21994;48.204;16.516;2023-01-23T12:16:02;3.20;99.90
35894;DHT22;21994;48.204;16.516;2023-01-23T12:24:16;3.30;99.90
35894;DHT22;21994;48.204;16.516;2023-01-23T12:28:04;3.40;99.90
35894;DHT22;21994;48.204;16.516;2023-01-23T12:35:34;3.50;99.90
35894;DHT22;21994;48.204;16.516;2023-01-23T12:38:22;3.60;99.90
35894;DHT22;21994;48.204;16.516;2023-01-23T12:40:52;3.60;99.90
35894;DHT22;21994;48.204;16.516;2023-01-23T12:46:26;3.80;99.90
35894;DHT22;21994;48.204;16.516;2023-01-23T12:52:15;4.00;99.90
35894;DHT22;21994;48.204;16.516;2023-01-23T12:54:48;3.90;99.90
35894;DHT22;21994;48.204;16.516;2023-01-23T12:57:18;4.00;99.90
35894;DHT22;21994;48.204;16.516;2023-01-23T13:02:47;4.20;99.90
35894;DHT22;21994;48.204;16.516;2023-01-23T13:07:58;4.00;99.90
35894;DHT22;21994;48.204;16.516;2023-01-23T13:13:48;4.20;99.90
35894;DHT22;21994;48.204;16.516;2023-01-23T13:16:15;4.10;99.90
35894;DHT22;21994;48.204;16.516;2023-01-23T13:18:52;4.10;99.90
35894;DHT22;21994;48.204;16.516;2023-01-23T13:22:00;4.10;99.90
35894;DHT22;21994;48.204;16.516;2023-01-23T13:24:29;4.10;99.90
35894;DHT22;21994;48.204;16.516;2023-01-23T13:27:56;4.10;99.90
35894;DHT22;21994;48.204;16.516;2023-01-23T13:32:51;4.10;99.90
35894;DHT22;21994;48.204;16.516;2023-01-23T13:43:40;4.10;99.90
35894;DHT22;21994;48.204;16.516;2023-01-23T13:46:07;4.10;99.90
35894;DHT22;21994;48.204;16.516;2023-01-23T13:48:50;4.20;99.90
35894;DHT22;21994;48.204;16.516;2023-01-23T13:51:48;4.20;99.90
35894;DHT22;21994;48.204;16.516;2023-01-23T13:54:16;4.20;99.90
35894;DHT22;21994;48.204;16.516;2023-01-23T13:57:06;4.30;99.90
35894;DHT22;21994;48.204;16.516;2023-01-23T13:59:37;4.20;99.90
35894;DHT22;21994;48.204;16.516;2023-01-23T14:05:23;4.20;99.90
35894;DHT22;21994;48.204;16.516;2023-01-23T14:07:58;4.20;99.90
35894;DHT22;21994;48.204;16.516;2023-01-23T14:10:30;4.20;99.90
35894;DHT22;21994;48.204;16.516;2023-01-23T14:13:01;4.20;99.90
35894;DHT22;21994;48.204;16.516;2023-01-23T14:15:27;4.10;99.90
35894;DHT22;21994;48.204;16.516;2023-01-23T14:18:13;4.10;99.90
35894;DHT22;21994;48.204;16.516;2023-01-23T14:20:44;4.10;99.90
35894;DHT22;21994;48.204;16.516;2023-01-23T14:25:57;4.00;99.90
35894;DHT22;21994;48.204;16.516;2023-01-23T14:28:23;4.10;99.90
35894;DHT22;21994;48.204;16.516;2023-01-23T14:30:56;4.00;99.90
35894;DHT22;21994;48.204;16.516;2023-01-23T14:33:23;4.00;99.90
35894;DHT22;21994;48.204;16.516;2023-01-23T14:35:49;4.00;99.90
35894;DHT22;21994;48.204;16.516;2023-01-23T14:38:21;4.00;99.90
35894;DHT22;21994;48.204;16.516;2023-01-23T14:40:58;4.00;99.90
35894;DHT22;21994;48.204;16.516;2023-01-23T14:43:28;4.00;99.90
35894;DHT22;21994;48.204;16.516;2023-01-23T14:45:58;4.00;99.90
35894;DHT22;21994;48.204;16.516;2023-01-23T14:48:31;4.00;99.90
35894;DHT22;21994;48.204;16.516;2023-01-23T14:51:08;4.00;99.90
35894;DHT22;21994;48.204;16.516;2023-01-23T14:53:39;4.00;99.90
35894;DHT22;21994;48.204;16.516;2023-01-23T14:56:06;4.00;99.90
35894;DHT22;21994;48.204;16.516;2023-01-23T14:58:34;4.00;99.90
35894;DHT22;21994;48.204;16.516;2023-01-23T15:01:00;4.00;99.90
35894;DHT22;21994;48.204;16.516;2023-01-23T15:03:34;4.00;99.90
35894;DHT22;21994;48.204;16.516;2023-01-23T15:06:01;4.00;99.90
35894;DHT22;21994;48.204;16.516;2023-01-23T15:08:31;4.10;99.90
35894;DHT22;21994;48.204;16.516;2023-01-23T15:10:58;4.00;99.90
35894;DHT22;21994;48.204;16.516;2023-01-23T15:16:19;3.90;99.90
35894;DHT22;21994;48.204;16.516;2023-01-23T15:18:57;3.80;99.90
35894;DHT22;21994;48.204;16.516;2023-01-23T15:21:43;4.00;99.90
35894;DHT22;21994;48.204;16.516;2023-01-23T15:26:39;3.90;99.90
35894;DHT22;21994;48.204;16.516;2023-01-23T15:31:40;3.90;99.90
35894;DHT22;21994;48.204;16.516;2023-01-23T15:39:30;3.90;99.90
35894;DHT22;21994;48.204;16.516;2023-01-23T15:44:31;3.90;99.90
35894;DHT22;21994;48.204;16.516;2023-01-23T15:46:57;3.80;99.90
35894;DHT22;21994;48.204;16.516;2023-01-23T15:49:28;3.70;99.90
35894;DHT22;21994;48.204;16.516;2023-01-23T15:51:55;3.80;99.90
35894;DHT22;21994;48.204;16.516;2023-01-23T15:54:30;3.70;99.90
35894;DHT22;21994;48.204;16.516;2023-01-23T15:57:00;3.80;99.90
35894;DHT22;21994;48.204;16.516;2023-01-23T15:59:26;3.80;99.90
35894;DHT22;21994;48.204;16.516;2023-01-23T16:01:53;3.90;99.90
35894;DHT22;21994;48.204;16.516;2023-01-23T16:04:19;3.80;99.90
35894;DHT22;21994;48.204;16.516;2023-01-23T16:06:45;3.70;99.90
35894;DHT22;21994;48.204;16.516;2023-01-23T16:09:30;3.70;99.90
35894;DHT22;21994;48.204;16.516;2023-01-23T16:11:57;3.80;99.90
35894;DHT22;21994;48.204;16.516;2023-01-23T16:14:23;3.80;99.90
35894;DHT22;21994;48.204;16.516;2023-01-23T16:16:50;3.90;99.90
35894;DHT22;21994;48.204;16.516;2023-01-23T16:19:16;3.80;99.90
35894;DHT22;21994;48.204;16.516;2023-01-23T16:21:42;3.70;99.90
35894;DHT22;21994;48.204;16.516;2023-01-23T16:24:30;3.80;99.90
35894;DHT22;21994;48.204;16.516;2023-01-23T16:26:55;3.80;99.90
35894;DHT22;21994;48.204;16.516;2023-01-23T16:29:24;3.80;99.90
35894;DHT22;21994;48.204;16.516;2023-01-23T16:31:54;3.80;99.90
35894;DHT22;21994;48.204;16.516;2023-01-23T16:34:21;3.70;99.90
35894;DHT22;21994;48.204;16.516;2023-01-23T16:36:47;3.70;99.90
35894;DHT22;21994;48.204;16.516;2023-01-23T16:39:18;3.70;99.90
35894;DHT22;21994;48.204;16.516;2023-01-23T16:41:49;3.70;99.90
35894;DHT22;21994;48.204;16.516;2023-01-23T16:44:16;3.70;99.90
35894;DHT22;21994;48.204;16.516;2023-01-23T16:46:43;3.70;99.90
35894;DHT22;21994;48.204;16.516;2023-01-23T16:49:10;3.80;99.90
35894;DHT22;21994;48.204;16.516;2023-01-23T16:51:36;3.80;99.90
35894;DHT22;21994;48.204;16.516;2023-01-23T16:54:02;3.60;99.90
35894;DHT22;21994;48.204;16.516;2023-01-23T16:56:33;3.70;99.90
35894;DHT22;21994;48.204;16.516;2023-01-23T16:59:05;3.70;99.90
35894;DHT22;21994;48.204;16.516;2023-01-23T17:01:32;3.70;99.90
35894;DHT22;21994;48.204;16.516;2023-01-23T17:04:01;3.60;99.90
35894;DHT22;21994;48.204;16.516;2023-01-23T17:06:28;3.70;99.90
35894;DHT22;21994;48.204;16.516;2023-01-23T17:08:54;3.70;99.90
35894;DHT22;21994;48.204;16.516;2023-01-23T17:11:34;3.70;99.90
35894;DHT22;21994;48.204;16.516;2023-01-23T17:14:01;3.70;99.90
35894;DHT22;21994;48.204;16.516;2023-01-23T17:16:31;3.70;99.90
35894;DHT22;21994;48.204;16.516;2023-01-23T17:18:57;3.60;99.90
35894;DHT22;21994;48.204;16.516;2023-01-23T17:21:24;3.60;99.90
35894;DHT22;21994;48.204;16.516;2023-01-23T17:23:54;3.50;99.90
35894;DHT22;21994;48.204;16.516;2023-01-23T17:26:20;3.60;99.90
35894;DHT22;21994;48.204;16.516;2023-01-23T17:28:45;3.60;99.90
35894;DHT22;21994;48.204;16.516;2023-01-23T17:31:14;3.50;99.90
35894;DHT22;21994;48.204;16.516;2023-01-23T17:33:43;3.50;99.90
35894;DHT22;21994;48.204;16.516;2023-01-23T17:36:09;3.60;99.90
35894;DHT22;21994;48.204;16.516;2023-01-23T17:38:35;3.60;99.90
35894;DHT22;21994;48.204;16.516;2023-01-23T17:41:02;3.60;99.90
35894;DHT22;21994;48.204;16.516;2023-01-23T17:43:30;3.60;99.90